createdAt,value
2022-08-29T14:07:03.944Z,3.33
2022-08-29T14:09:44.374Z,9.88
2022-08-29T14:12:16.840Z,4.50
2022-08-29T14:14:48.662Z,3.30
2022-08-29T14:17:21.245Z,3.20
2022-08-29T14:19:51.973Z,4.40
2022-08-29T14:22:22.683Z,4.40
2022-08-29T14:24:55.562Z,4.60
2022-08-29T14:27:26.239Z,3.80
2022-08-29T14:29:57.074Z,4.43
2022-08-29T14:32:28.378Z,5.57
2022-08-29T14:34:59.000Z,5.93
2022-08-29T14:37:29.793Z,4.80
2022-08-29T14:40:00.637Z,5.10
2022-08-29T14:42:31.633Z,2.67
2022-08-29T14:45:02.262Z,4.57
2022-08-29T14:47:33.087Z,4.57
2022-08-29T14:50:03.602Z,7.90
2022-08-29T14:52:34.562Z,4.55
2022-08-29T14:55:05.173Z,4.13
2022-08-29T14:57:35.909Z,3.70
2022-08-29T15:00:28.185Z,3.72
2022-08-29T15:08:04.332Z,4.85
2022-08-29T15:10:37.659Z,5.20
2022-08-29T15:13:09.922Z,4.10
2022-08-29T15:15:40.916Z,5.75
2022-08-29T15:18:30.523Z,3.63
2022-08-29T15:21:04.199Z,4.93
2022-08-29T15:23:36.548Z,5.33
2022-08-29T15:26:07.341Z,5.78
2022-08-29T15:28:38.007Z,3.97
2022-08-29T15:31:08.726Z,3.40
2022-08-29T15:33:39.420Z,3.90
2022-08-29T15:36:10.813Z,6.63
2022-08-29T15:38:41.616Z,4.38
2022-08-29T15:41:12.301Z,8.47
2022-08-29T15:43:43.064Z,6.67
2022-08-29T15:46:14.178Z,5.38
2022-08-29T15:48:44.813Z,5.70
2022-08-29T15:51:15.630Z,5.00
2022-08-29T15:53:46.355Z,6.50
2022-08-29T15:56:16.898Z,4.33
2022-08-29T15:58:47.624Z,4.50
2022-08-29T16:01:19.971Z,6.93
2022-08-29T16:03:50.740Z,4.22
2022-08-29T16:06:21.388Z,7.67
2022-08-29T16:08:55.426Z,5.03
2022-08-29T18:55:51.073Z,10.77
2022-08-29T18:58:29.911Z,12.70
2022-08-29T19:01:02.189Z,10.52
2022-08-29T19:03:32.717Z,10.45
2022-08-29T19:06:03.360Z,12.17
2022-08-29T19:08:34.924Z,12.30
2022-08-29T19:11:06.458Z,10.18
2022-08-29T19:13:38.575Z,12.60
2022-08-29T19:16:12.346Z,12.35
2022-08-29T19:18:43.369Z,12.25
2022-08-29T19:21:14.012Z,13.88
2022-08-29T19:23:52.372Z,14.47
2022-08-29T19:26:26.905Z,9.48
2022-08-29T19:28:59.511Z,15.27
2022-08-29T19:34:01.883Z,13.40
2022-08-29T19:36:32.493Z,10.85
2022-08-29T19:39:03.309Z,13.87
2022-08-29T19:41:37.472Z,13.50
2022-08-29T19:44:08.144Z,12.15
2022-08-29T19:46:38.783Z,10.50
2022-08-29T19:49:09.501Z,12.32
2022-08-29T19:51:40.753Z,11.57
2022-08-29T19:54:12.613Z,12.15
2022-08-29T19:56:46.835Z,13.10
2022-08-29T19:59:17.860Z,12.18
2022-08-29T20:01:49.718Z,13.95
2022-08-29T20:06:50.971Z,10.70
2022-08-29T20:09:21.731Z,13.50
2022-08-29T20:11:56.125Z,13.95
2022-08-29T20:14:26.832Z,13.98
2022-08-29T20:16:57.722Z,13.38
2022-08-29T20:19:29.592Z,16.50
2022-08-29T20:22:00.262Z,11.80
2022-08-29T20:24:30.799Z,14.53
2022-08-29T20:27:01.743Z,11.80
2022-08-29T20:29:32.756Z,14.95
2022-08-29T20:32:04.519Z,14.23
2022-08-29T20:34:35.166Z,12.57
2022-08-29T20:37:11.656Z,13.77
2022-08-29T20:39:45.495Z,13.52
2022-08-29T20:42:18.334Z,13.13
2022-08-29T20:44:49.518Z,11.95
2022-08-29T20:49:53.535Z,12.90
2022-08-29T20:52:26.856Z,12.93
2022-08-29T20:54:57.591Z,14.18
2022-08-29T20:57:28.285Z,13.25
2022-08-29T20:59:58.831Z,13.20
2022-08-29T21:02:47.944Z,13.17
2022-08-29T21:05:37.282Z,10.90
2022-08-29T21:08:08.107Z,10.57
2022-08-29T21:10:38.881Z,15.68
2022-08-29T21:13:09.950Z,13.93
2022-08-29T21:15:42.464Z,12.95
2022-08-29T21:18:15.808Z,11.48
2022-08-29T21:20:54.631Z,10.88
2022-08-29T21:23:27.753Z,11.32
2022-08-29T21:26:00.898Z,13.77
2022-08-29T21:28:35.567Z,10.68
2022-08-29T21:31:14.601Z,12.68
2022-08-29T21:33:48.236Z,9.95
2022-08-29T21:36:22.739Z,14.55
2022-08-29T21:39:00.660Z,12.70
2022-08-29T21:41:33.685Z,16.17
2022-08-29T21:44:04.445Z,14.20
2022-08-29T21:46:38.609Z,10.38
2022-08-29T21:49:10.534Z,12.10
2022-08-29T21:51:41.493Z,12.35
2022-08-29T21:54:13.731Z,10.60
2022-08-29T21:56:45.896Z,11.95
2022-08-29T21:59:19.166Z,13.45
2022-08-29T22:01:54.605Z,15.18
2022-08-29T22:04:28.105Z,14.00
2022-08-29T22:07:01.764Z,10.73
2022-08-29T22:09:33.599Z,13.15
2022-08-29T22:12:06.436Z,11.32
2022-08-29T22:14:55.226Z,17.50
2022-08-29T22:17:26.298Z,12.05
2022-08-29T22:19:57.023Z,14.88
2022-08-29T22:22:28.710Z,12.52
2022-08-29T22:24:59.511Z,13.02
2022-08-29T22:27:30.144Z,12.37
2022-08-29T22:30:03.679Z,13.90
2022-08-29T22:32:35.505Z,13.52
2022-08-29T22:35:08.626Z,16.53
2022-08-29T22:37:39.569Z,16.20
2022-08-29T22:40:15.250Z,16.65
2022-08-29T22:42:47.536Z,18.40
2022-08-29T22:45:21.270Z,17.07
2022-08-29T22:47:51.757Z,14.52
2022-08-29T22:50:25.450Z,16.85
2022-08-29T22:53:01.094Z,18.33
2022-08-29T22:58:00.027Z,16.98
2022-08-29T23:00:30.697Z,17.17
2022-08-29T23:03:01.413Z,16.88
